首页
METAR-TAF:

METAR-TAF

机场 :

鲁珀特王子港, 不列颠哥伦比亚, 加拿大

纬度: 54-18N, 经度: 130-26W, 海拔: 34米

当前天气观测

该预报发布于1小时和10分钟前的19:00 UTC
风速5节,风向西南,在南转西南西转西北之间变化
温度 10°C
湿度 82%
气压 1008 hPa
能見度: 14.5公里
散云层高于3400英尺
多云层高于6000英尺
阴天层高于11000英尺

METAR: CYPR 171900Z AUTO 23005KT 200V290 9SM SCT034 BKN060 OVC110 10/07 A2977 RMK PRESRR SLP083

时间: 12:10 (20:10 UTC)

预报

该预报发布于1小时和32分钟前的18:38 UTC
预报有效从17日的 19点(UTC)到 18日的 07点(UTC)
风速12节,风向西转西南,有时为22节阵风
能見度: 10公里
散云层高于1500英尺
多云层高于4000英尺
阴天层高于6000英尺
短暂存在
从 17日的 19点(UTC)到 18日的 07点(UTC)
能見度: 6.4公里
多云层高于1500英尺
阴天层高于3000英尺
小阵雨, 轻雾
成为
从 18日的 01点(UTC)到 18日的 03点(UTC)
风速10节,风向西南

TAF: CYPR 171838Z 1719/1807 25012G22KT P6SM SCT015 BKN040 OVC060 TEMPO 1719/1807 4SM -SHRA BR BKN015 OVC030 BECMG 1801/1803 22010KT RMK FCST BASED ON AUTO OBS. NXT FCST BY 180100Z

超过4000个机场的气象观测和天气预报(METAR&TAF报告)。

可查询的气象台以黄色和红色小点在地图上表示。

将鼠标移到小点上方,可查看气象台名称。

然后点击查看天气观测和预报。

如需切换地图:点击带黑十字的绿色按钮放大地图;点击带横线的绿色按钮缩小地图;或者点击绿色箭头查看邻近地区的地图。


METAR-TAF: